createdAt,value
2019-02-26T00:02:14.861Z,78.50
2019-02-26T00:04:40.516Z,78.20
2019-02-26T00:07:08.838Z,77.90
2019-02-26T00:09:35.460Z,78.00
2019-02-26T00:12:01.812Z,78.00
2019-02-26T00:14:30.248Z,78.00
2019-02-26T00:16:56.160Z,78.10
2019-02-26T00:19:22.358Z,78.20
2019-02-26T00:21:50.130Z,78.20
2019-02-26T00:24:16.890Z,78.40
2019-02-26T00:26:45.032Z,78.70
2019-02-26T00:29:11.251Z,78.90
2019-02-26T00:31:37.358Z,79.20
2019-02-26T00:34:03.626Z,79.60
2019-02-26T00:36:31.441Z,79.70
2019-02-26T00:38:58.452Z,79.80
2019-02-26T00:41:26.806Z,79.90
2019-02-26T00:43:57.623Z,79.90
2019-02-26T00:46:24.261Z,80.70
2019-02-26T00:48:51.827Z,80.00
2019-02-26T00:51:20.051Z,80.00
2019-02-26T00:53:48.839Z,80.10
2019-02-26T00:56:14.285Z,80.40
2019-02-26T00:58:41.530Z,80.40
2019-02-26T01:01:12.144Z,80.50
2019-02-26T01:03:36.775Z,80.70
2019-02-26T01:06:04.236Z,80.60
2019-02-26T01:08:31.111Z,80.70
2019-02-26T01:10:59.131Z,80.80
2019-02-26T01:13:27.635Z,80.90
2019-02-26T01:15:53.249Z,81.20
2019-02-26T01:18:22.402Z,81.30
2019-02-26T01:20:52.280Z,81.40
2019-02-26T01:23:18.727Z,81.60
2019-02-26T01:25:44.547Z,81.70
2019-02-26T01:28:14.148Z,81.80
2019-02-26T01:30:38.841Z,82.00
2019-02-26T01:33:05.565Z,82.30
2019-02-26T01:35:33.150Z,82.60
2019-02-26T01:38:01.078Z,82.80
2019-02-26T01:40:27.302Z,82.50
2019-02-26T01:42:57.388Z,82.60
2019-02-26T01:45:22.352Z,82.70
2019-02-26T01:47:50.910Z,82.70
2019-02-26T01:50:17.559Z,83.00
2019-02-26T01:52:43.770Z,83.10
2019-02-26T01:55:10.800Z,83.50
2019-02-26T01:57:36.995Z,83.80
2019-02-26T02:00:09.699Z,83.90
2019-02-26T02:02:35.799Z,83.50
2019-02-26T02:05:04.619Z,83.50
2019-02-26T02:07:30.631Z,83.50
2019-02-26T02:09:58.178Z,83.50
2019-02-26T02:12:27.427Z,83.30
2019-02-26T02:14:52.935Z,83.40
2019-02-26T02:17:21.112Z,83.30
2019-02-26T02:19:47.193Z,83.40
2019-02-26T02:22:14.641Z,83.60
2019-02-26T02:24:41.842Z,83.70
2019-02-26T02:27:09.495Z,83.90
2019-02-26T02:29:35.602Z,84.20
2019-02-26T02:32:04.450Z,84.30
2019-02-26T02:34:32.658Z,84.30
2019-02-26T02:36:57.759Z,84.60
2019-02-26T02:39:26.325Z,84.70
2019-02-26T02:41:54.884Z,84.10
2019-02-26T02:44:21.054Z,84.40
2019-02-26T02:46:48.115Z,84.30
2019-02-26T02:49:15.755Z,84.30
2019-02-26T02:51:42.281Z,84.20
2019-02-26T02:54:08.387Z,84.40
2019-02-26T02:56:36.992Z,84.50
2019-02-26T02:59:03.473Z,84.50
2019-02-26T03:01:30.847Z,84.60
2019-02-26T03:04:00.550Z,84.70
2019-02-26T03:06:28.234Z,84.60
2019-02-26T03:08:53.540Z,84.10
2019-02-26T03:11:19.763Z,84.30
2019-02-26T03:13:48.346Z,84.50
2019-02-26T03:16:15.789Z,84.40
2019-02-26T03:18:41.913Z,84.80
2019-02-26T03:21:08.119Z,85.30
2019-02-26T03:23:37.151Z,85.40
2019-02-26T03:26:02.343Z,85.40
2019-02-26T03:28:28.457Z,85.40
2019-02-26T03:30:54.576Z,85.40
2019-02-26T03:33:20.709Z,85.20
2019-02-26T03:35:46.899Z,85.40
2019-02-26T03:38:15.029Z,85.40
2019-02-26T03:40:41.144Z,85.20
2019-02-26T03:43:08.367Z,85.40
2019-02-26T03:45:35.519Z,85.60
2019-02-26T03:48:01.710Z,85.60
2019-02-26T03:50:27.841Z,85.50
2019-02-26T03:52:53.946Z,85.50
2019-02-26T03:55:20.191Z,85.50
2019-02-26T03:57:54.547Z,85.40
2019-02-26T04:00:20.301Z,85.50
2019-02-26T04:02:49.096Z,85.50
2019-02-26T04:05:14.954Z,85.50
2019-02-26T04:07:41.469Z,85.70
2019-02-26T04:10:08.895Z,85.70
2019-02-26T04:12:39.176Z,85.60
2019-02-26T04:15:09.819Z,85.70
2019-02-26T04:17:36.868Z,86.00
2019-02-26T04:20:06.396Z,86.10
2019-02-26T04:22:32.974Z,86.20
2019-02-26T04:25:09.392Z,86.30
2019-02-26T04:27:41.371Z,87.00
2019-02-26T04:30:47.727Z,86.30
2019-02-26T04:33:53.750Z,86.20
2019-02-26T04:36:26.424Z,86.30
2019-02-26T04:38:59.149Z,86.60
2019-02-26T04:41:27.184Z,86.80
2019-02-26T04:44:13.630Z,86.90
2019-02-26T04:46:46.390Z,87.00
2019-02-26T04:49:12.497Z,87.10
2019-02-26T04:51:41.541Z,87.40
2019-02-26T04:54:06.754Z,87.50
2019-02-26T04:56:37.053Z,87.40
2019-02-26T04:59:03.573Z,87.50
2019-02-26T05:01:30.966Z,87.60
2019-02-26T05:03:57.568Z,87.50
2019-02-26T05:06:23.862Z,87.50
2019-02-26T05:08:50.088Z,87.70
2019-02-26T05:11:30.937Z,88.00
2019-02-26T05:13:44.227Z,88.30
2019-02-26T05:16:13.159Z,88.40
2019-02-26T05:18:39.286Z,88.50
2019-02-26T05:21:08.349Z,88.60
2019-02-26T05:23:33.701Z,88.50
2019-02-26T05:26:05.567Z,88.80
2019-02-26T05:28:35.672Z,88.80
2019-02-26T05:31:00.248Z,88.80
2019-02-26T05:33:27.679Z,88.80
2019-02-26T05:35:54.417Z,89.00
2019-02-26T05:38:20.725Z,89.20
2019-02-26T05:40:48.203Z,89.20
2019-02-26T05:43:14.868Z,89.30
2019-02-26T05:45:41.021Z,89.30
2019-02-26T05:48:07.159Z,89.30
2019-02-26T05:50:35.445Z,89.40
2019-02-26T05:53:04.614Z,89.70
2019-02-26T05:55:29.583Z,90.00
2019-02-26T05:57:55.806Z,90.00
2019-02-26T06:00:25.394Z,89.90
2019-02-26T06:02:51.006Z,89.80
2019-02-26T06:05:20.269Z,89.80
2019-02-26T06:07:45.369Z,90.00
2019-02-26T06:10:11.792Z,90.00
2019-02-26T06:12:40.736Z,90.00
2019-02-26T06:15:07.994Z,90.00
2019-02-26T06:17:35.190Z,89.80
2019-02-26T06:20:08.053Z,89.80
2019-02-26T06:22:34.658Z,90.00
2019-02-26T06:25:06.952Z,90.00
2019-02-26T06:27:28.815Z,90.20
2019-02-26T06:29:57.151Z,90.10
2019-02-26T06:32:27.400Z,90.10
2019-02-26T06:34:51.207Z,90.20
2019-02-26T06:37:23.516Z,90.20
2019-02-26T06:39:52.646Z,90.20
2019-02-26T06:42:18.165Z,90.30
2019-02-26T06:44:46.335Z,90.30
2019-02-26T06:47:12.382Z,90.10
2019-02-26T06:49:38.481Z,89.90
2019-02-26T06:52:06.081Z,89.60
2019-02-26T06:54:32.928Z,89.10
2019-02-26T06:56:59.169Z,88.40
2019-02-26T06:59:33.863Z,87.60
2019-02-26T07:01:58.847Z,86.70
2019-02-26T07:04:29.394Z,86.10
2019-02-26T07:06:55.202Z,85.50
2019-02-26T07:09:21.371Z,84.90
2019-02-26T07:11:47.527Z,84.40
2019-02-26T07:14:13.750Z,84.00
2019-02-26T07:16:40.515Z,83.70
2019-02-26T07:19:08.943Z,83.10
2019-02-26T07:21:34.942Z,82.60
2019-02-26T07:24:01.642Z,82.20
2019-02-26T07:26:29.307Z,81.80
2019-02-26T07:28:55.545Z,81.00
2019-02-26T07:31:21.746Z,80.10
2019-02-26T07:33:48.102Z,78.90
2019-02-26T07:36:16.069Z,77.30
2019-02-26T07:38:46.032Z,75.70
2019-02-26T07:41:10.626Z,73.90
2019-02-26T07:43:41.073Z,72.80
2019-02-26T07:46:04.928Z,69.70
2019-02-26T07:48:31.721Z,68.20
2019-02-26T07:51:01.314Z,66.10
2019-02-26T07:53:27.560Z,64.80
2019-02-26T07:55:53.647Z,62.70
2019-02-26T07:58:19.803Z,61.00
2019-02-26T08:00:49.580Z,59.30
2019-02-26T08:03:14.039Z,58.30
2019-02-26T08:05:40.155Z,56.40
2019-02-26T08:08:06.431Z,55.40
2019-02-26T08:10:35.139Z,53.50
2019-02-26T08:13:02.939Z,52.10
2019-02-26T08:15:30.300Z,50.60
2019-02-26T08:17:58.456Z,49.30
2019-02-26T08:20:25.108Z,47.50
2019-02-26T08:22:52.224Z,46.10
2019-02-26T08:25:19.462Z,45.40
2019-02-26T08:27:45.722Z,44.00
2019-02-26T08:30:14.816Z,41.60
2019-02-26T08:32:42.205Z,40.90
2019-02-26T08:35:09.134Z,39.60
2019-02-26T08:37:35.373Z,38.60
2019-02-26T08:40:01.859Z,38.30
2019-02-26T08:42:28.099Z,37.60
2019-02-26T08:44:55.909Z,36.50
2019-02-26T08:47:23.500Z,35.60
2019-02-26T08:49:49.811Z,34.90
2019-02-26T08:52:17.517Z,34.30
2019-02-26T08:54:44.109Z,32.90
2019-02-26T08:57:11.922Z,32.60
2019-02-26T08:59:38.255Z,32.10
2019-02-26T09:02:04.402Z,31.90
2019-02-26T09:04:30.531Z,31.40
2019-02-26T09:06:57.575Z,31.60
2019-02-26T09:09:25.937Z,30.60
2019-02-26T09:11:53.369Z,30.10
2019-02-26T09:14:20.855Z,29.90
2019-02-26T09:16:49.806Z,29.50
2019-02-26T09:19:15.147Z,29.30
2019-02-26T09:21:42.595Z,28.90
2019-02-26T09:24:09.457Z,28.70
2019-02-26T09:26:35.680Z,27.80
2019-02-26T09:29:01.957Z,27.80
2019-02-26T09:31:28.176Z,27.40
2019-02-26T09:33:54.320Z,27.20
2019-02-26T09:36:23.173Z,26.60
2019-02-26T09:38:49.651Z,26.30
2019-02-26T09:41:17.058Z,26.40
2019-02-26T09:43:45.929Z,26.30
2019-02-26T09:46:16.216Z,26.10
2019-02-26T09:48:42.911Z,26.30
2019-02-26T09:51:09.346Z,26.20
2019-02-26T09:53:37.059Z,25.90
2019-02-26T09:56:03.439Z,25.80
2019-02-26T09:58:29.674Z,25.80
2019-02-26T10:00:55.884Z,25.80
2019-02-26T10:03:22.128Z,26.20
2019-02-26T10:05:50.259Z,25.40
2019-02-26T10:08:17.285Z,25.30
2019-02-26T10:10:44.333Z,25.20
2019-02-26T10:13:10.491Z,24.30
2019-02-26T10:15:39.291Z,24.60
2019-02-26T10:18:06.798Z,24.70
2019-02-26T10:20:32.976Z,25.80
2019-02-26T10:23:02.763Z,25.60
2019-02-26T10:25:29.358Z,25.80
2019-02-26T10:27:55.409Z,25.50
2019-02-26T10:30:21.826Z,25.40
2019-02-26T10:32:48.058Z,25.20
2019-02-26T10:35:25.569Z,24.80
2019-02-26T10:37:52.959Z,25.30
2019-02-26T10:40:19.568Z,24.50
2019-02-26T10:42:46.242Z,24.00
2019-02-26T10:45:15.555Z,24.60
2019-02-26T10:47:41.768Z,24.20
2019-02-26T10:50:16.306Z,24.00
2019-02-26T10:52:41.938Z,24.00
2019-02-26T10:55:12.733Z,24.10
2019-02-26T10:57:38.483Z,24.50
2019-02-26T11:00:26.003Z,23.90
2019-02-26T11:02:54.034Z,24.10
2019-02-26T11:05:25.676Z,23.50
2019-02-26T11:07:48.376Z,23.20
2019-02-26T11:10:17.539Z,23.70
2019-02-26T11:12:43.181Z,23.70
2019-02-26T11:15:13.820Z,23.60
2019-02-26T11:17:40.177Z,24.00
2019-02-26T11:20:11.761Z,24.50
2019-02-26T11:22:41.641Z,24.40
2019-02-26T11:25:08.620Z,23.80
2019-02-26T11:27:35.792Z,24.20
2019-02-26T11:30:06.515Z,23.60
2019-02-26T11:32:37.339Z,23.10
2019-02-26T11:35:02.342Z,22.70
2019-02-26T11:37:29.538Z,22.20
2019-02-26T11:39:57.797Z,21.70
2019-02-26T11:42:26.188Z,20.50
2019-02-26T11:44:53.095Z,18.70
2019-02-26T11:47:20.627Z,18.20
2019-02-26T11:49:46.864Z,16.80
2019-02-26T11:52:13.003Z,16.80
2019-02-26T11:54:40.218Z,15.60
2019-02-26T11:57:10.133Z,15.60
2019-02-26T11:59:35.670Z,14.70
2019-02-26T12:02:04.439Z,14.90
2019-02-26T12:04:31.671Z,14.60
2019-02-26T12:06:58.510Z,16.30
2019-02-26T12:09:25.943Z,16.40
2019-02-26T12:11:52.195Z,15.90
2019-02-26T12:14:19.490Z,15.80
2019-02-26T12:16:46.439Z,16.10
2019-02-26T12:19:12.561Z,16.10
2019-02-26T12:21:38.769Z,15.90
2019-02-26T12:24:06.614Z,15.50
2019-02-26T12:26:32.928Z,15.70
2019-02-26T12:28:59.669Z,15.70
2019-02-26T12:31:28.427Z,15.80
2019-02-26T12:33:55.447Z,15.40
2019-02-26T12:36:23.588Z,16.00
2019-02-26T12:42:02.616Z,15.80
2019-02-26T12:44:39.456Z,15.30
2019-02-26T12:47:30.141Z,15.50
2019-02-26T12:53:35.702Z,15.60
2019-02-26T12:56:02.600Z,15.30
2019-02-26T12:58:31.521Z,15.90
2019-02-26T13:00:58.087Z,15.80
2019-02-26T13:03:24.260Z,16.20
2019-02-26T13:06:06.046Z,14.70
2019-02-26T13:08:33.424Z,14.40
2019-02-26T13:11:02.336Z,14.70
2019-02-26T13:13:28.677Z,14.90
2019-02-26T13:15:55.027Z,15.70
2019-02-26T13:18:21.421Z,15.70
2019-02-26T13:20:52.155Z,15.80
2019-02-26T13:23:45.524Z,15.40
2019-02-26T13:26:22.988Z,15.20
2019-02-26T13:29:35.958Z,14.90
2019-02-26T13:31:42.574Z,14.60
2019-02-26T13:37:26.354Z,14.40
2019-02-26T13:40:38.177Z,14.60
2019-02-26T13:45:58.817Z,14.00
2019-02-26T13:51:22.629Z,13.80
2019-02-26T13:53:48.882Z,14.30
2019-02-26T13:56:15.258Z,14.40
2019-02-26T13:58:41.640Z,14.20
2019-02-26T14:01:07.886Z,14.90
2019-02-26T14:03:34.138Z,14.10
2019-02-26T14:06:00.270Z,14.10
2019-02-26T14:08:26.410Z,14.50
2019-02-26T14:10:54.480Z,14.30
2019-02-26T14:13:21.043Z,13.70
2019-02-26T14:15:48.249Z,13.40
2019-02-26T14:21:17.515Z,13.10
2019-02-26T14:24:00.936Z,12.70
2019-02-26T14:32:32.701Z,13.00
2019-02-26T14:35:01.507Z,12.50
2019-02-26T14:37:27.844Z,13.10
2019-02-26T14:39:54.423Z,13.40
2019-02-26T14:42:21.664Z,13.20
2019-02-26T14:44:48.115Z,13.50
2019-02-26T14:47:30.106Z,13.50
2019-02-26T14:49:56.848Z,12.90
2019-02-26T14:52:37.211Z,12.70
2019-02-26T14:55:18.249Z,12.90
2019-02-26T15:42:56.178Z,16.70
2019-02-26T15:45:52.025Z,16.90
2019-02-26T15:48:14.448Z,17.30
2019-02-26T15:50:40.649Z,17.60
2019-02-26T15:53:07.366Z,17.90
2019-02-26T15:55:33.608Z,18.20
2019-02-26T15:58:03.073Z,18.00
2019-02-26T16:00:28.303Z,17.90
2019-02-26T16:02:59.061Z,18.40
2019-02-26T16:05:25.428Z,18.50
2019-02-26T16:07:51.668Z,18.90
2019-02-26T16:10:19.456Z,19.60
2019-02-26T16:12:46.415Z,20.10
2019-02-26T16:15:14.099Z,20.00
2019-02-26T16:17:40.271Z,20.40
2019-02-26T16:20:16.164Z,20.50
2019-02-26T16:22:42.702Z,21.00
2019-02-26T16:25:09.018Z,21.80
2019-02-26T16:27:37.653Z,22.10
2019-02-26T16:30:12.975Z,22.80
2019-02-26T16:32:39.586Z,23.40
2019-02-26T16:35:06.758Z,24.30
2019-02-26T16:37:33.008Z,25.50
2019-02-26T17:39:08.225Z,44.50
2019-02-26T18:16:16.755Z,52.00
2019-02-26T18:18:43.003Z,50.90
2019-02-26T18:21:09.123Z,52.20
2019-02-26T18:23:37.573Z,52.20
2019-02-26T18:26:03.311Z,52.50
2019-02-26T18:28:29.800Z,53.40
2019-02-26T18:30:56.020Z,53.80
2019-02-26T18:33:22.191Z,53.70
2019-02-26T18:35:48.498Z,53.90
2019-02-26T18:38:14.744Z,54.00
2019-02-26T18:40:41.198Z,53.30
2019-02-26T18:43:07.526Z,52.90
2019-02-26T18:45:33.931Z,53.10
2019-02-26T18:48:00.130Z,53.50
2019-02-26T18:50:28.532Z,53.30
2019-02-26T18:52:54.915Z,53.00
2019-02-26T18:55:21.170Z,53.10
2019-02-26T18:57:47.422Z,53.50
2019-02-26T19:00:17.040Z,54.00
2019-02-26T19:02:43.428Z,54.70
2019-02-26T19:05:11.822Z,55.60
2019-02-26T19:07:38.151Z,56.20
2019-02-26T19:10:17.472Z,56.50
2019-02-26T19:12:42.208Z,56.70
2019-02-26T19:15:14.800Z,57.30
2019-02-26T19:17:43.259Z,58.30
2019-02-26T19:20:12.736Z,59.60
2019-02-26T19:22:40.412Z,59.30
2019-02-26T19:25:09.152Z,59.90
2019-02-26T19:27:35.100Z,58.90
2019-02-26T19:30:04.127Z,59.00
2019-02-26T19:32:29.627Z,59.00
2019-02-26T19:34:55.757Z,59.50
2019-02-26T19:37:22.488Z,59.50
2019-02-26T19:39:48.719Z,59.40
2019-02-26T19:42:17.394Z,61.20
2019-02-26T19:44:43.754Z,59.80
2019-02-26T19:47:10.001Z,59.60
2019-02-26T19:49:39.391Z,60.40
2019-02-26T19:52:06.383Z,59.30
2019-02-26T19:54:32.510Z,59.00
2019-02-26T19:56:58.970Z,58.80
2019-02-26T19:59:26.949Z,58.00
2019-02-26T20:01:53.170Z,58.30
2019-02-26T20:04:19.283Z,59.20
2019-02-26T20:06:45.587Z,59.90
2019-02-26T20:09:11.999Z,58.80
2019-02-26T20:11:38.213Z,58.80
2019-02-26T20:14:04.999Z,59.20
2019-02-26T20:16:31.303Z,59.60
2019-02-26T20:18:59.074Z,59.50
2019-02-26T20:21:25.620Z,59.40
2019-02-26T20:23:53.486Z,59.10
2019-02-26T20:26:19.890Z,58.90
2019-02-26T20:28:46.133Z,59.00
2019-02-26T20:31:12.450Z,60.10
2019-02-26T20:33:38.708Z,61.10
2019-02-26T20:36:04.953Z,62.40
2019-02-26T20:38:35.039Z,62.00
2019-02-26T20:40:59.245Z,62.50
2019-02-26T20:43:25.475Z,62.60
2019-02-26T20:45:51.826Z,62.80
2019-02-26T20:48:18.038Z,63.80
2019-02-26T20:50:44.187Z,63.80
2019-02-26T20:53:10.459Z,63.80
2019-02-26T20:55:36.736Z,63.30
2019-02-26T20:58:02.957Z,62.50
2019-02-26T21:00:29.191Z,63.10
2019-02-26T21:02:55.323Z,62.00
2019-02-26T21:05:21.508Z,61.80
2019-02-26T21:07:49.449Z,62.30
2019-02-26T21:10:19.205Z,62.20
2019-02-26T21:12:45.428Z,61.70
2019-02-26T21:15:35.107Z,61.80
2019-02-26T21:18:01.237Z,62.30
2019-02-26T21:20:27.391Z,62.20
2019-02-26T21:22:54.863Z,62.20
2019-02-26T21:25:21.722Z,61.90
2019-02-26T21:27:47.918Z,61.70
2019-02-26T21:30:21.604Z,62.30
2019-02-26T21:32:48.025Z,62.70
2019-02-26T21:35:14.354Z,63.00
2019-02-26T21:37:40.494Z,62.80
2019-02-26T21:40:16.182Z,62.70
2019-02-26T21:42:42.384Z,63.10
2019-02-26T21:45:15.948Z,63.30
2019-02-26T21:47:42.460Z,62.80
2019-02-26T21:50:10.602Z,63.00
2019-02-26T21:52:36.817Z,62.20
2019-02-26T21:55:03.855Z,62.50
2019-02-26T21:57:29.967Z,62.90
2019-02-26T21:59:56.102Z,62.30
2019-02-26T22:02:22.212Z,62.00
2019-02-26T22:04:48.335Z,62.60
2019-02-26T22:07:16.770Z,62.50
2019-02-26T22:09:46.363Z,62.20
2019-02-26T22:12:12.651Z,62.60
2019-02-26T22:14:38.774Z,62.50
2019-02-26T22:17:04.999Z,62.50
2019-02-26T22:19:31.236Z,62.50
2019-02-26T22:21:57.421Z,62.90
2019-02-26T22:24:23.622Z,62.80
2019-02-26T22:26:49.847Z,63.00
2019-02-26T22:29:15.996Z,62.70
2019-02-26T22:31:42.338Z,62.50
2019-02-26T22:34:08.548Z,62.70
2019-02-26T22:36:34.798Z,62.50
2019-02-26T22:39:03.677Z,61.50
2019-02-26T22:41:29.793Z,61.10
2019-02-26T22:43:58.667Z,61.40
2019-02-26T22:46:24.883Z,61.80
2019-02-26T22:48:51.032Z,62.60
2019-02-26T22:51:18.562Z,62.90
2019-02-26T22:53:44.875Z,64.80
2019-02-26T22:56:11.000Z,64.30
2019-02-26T22:58:39.052Z,64.10
2019-02-26T23:01:13.749Z,63.20
2019-02-26T23:03:45.723Z,62.50
2019-02-26T23:06:11.697Z,62.90
2019-02-26T23:08:38.111Z,63.50
2019-02-26T23:11:04.535Z,63.70
2019-02-26T23:13:31.885Z,63.60
2019-02-26T23:15:59.425Z,64.70
2019-02-26T23:18:25.773Z,64.00
2019-02-26T23:20:52.184Z,63.00
2019-02-26T23:23:21.652Z,62.60
2019-02-26T23:25:46.643Z,63.10
2019-02-26T23:28:14.775Z,63.40
2019-02-26T23:30:43.948Z,64.00
2019-02-26T23:33:10.143Z,64.50
2019-02-26T23:35:36.615Z,64.40
2019-02-26T23:38:03.016Z,63.80
2019-02-26T23:40:29.239Z,64.90
2019-02-26T23:42:55.825Z,65.40
2019-02-26T23:45:24.218Z,65.10
2019-02-26T23:47:50.008Z,65.70
2019-02-26T23:50:18.290Z,65.90
2019-02-26T23:52:44.399Z,66.50
2019-02-26T23:55:13.069Z,67.10
2019-02-26T23:57:39.909Z,67.10
